Damon, Texas
Current Conditions -  °F | °C
As of 12:53 AM on Wednesday 22 Oct 2014 (Local Time) from KLBX Reporting Station
Clear Clear  
Wind Chill: 60°   Ceiling: Unl
Heat Index: 60°   Visibility: 10mi
Dew Point: 60°   Wind: 5mph
Humidity: 100%   Direction: 10°N
Pressure: 30.02"   Gusts: NA
Location:  29.29°N, 95.74°W
Report Text: KLBX 220553Z AUTO 01004KT 10SM CLR 16/16 A3002 RMK AO2 SLP164 T01560156 10217 20144 402720139 58004
Loading
Personal Weather Stations






























Interactive Weather Map
Tropical Storm Tracking
New forecast layout! Learn more

10-Day Weather Forecast

Advertisements
Track Severe Weather on mobile